sensor_id;sensor_type;location;lat;lon;timestamp;pressure;altitude;pressure_sealevel;temperature;humidity
63552;BME280;49698;48.072;7.800;2023-04-07T00:00:07;99423.38;;;8.82;69.88
63552;BME280;49698;48.072;7.800;2023-04-07T00:02:37;99434.09;;;8.82;69.43
63552;BME280;49698;48.072;7.800;2023-04-07T00:05:06;99432.19;;;8.82;69.54
63552;BME280;49698;48.072;7.800;2023-04-07T00:07:34;99429.28;;;8.84;69.33
63552;BME280;49698;48.072;7.800;2023-04-07T00:10:06;99432.50;;;8.81;69.17
63552;BME280;49698;48.072;7.800;2023-04-07T00:12:34;99423.94;;;8.79;69.37
63552;BME280;49698;48.072;7.800;2023-04-07T00:15:02;99423.38;;;8.77;69.61
63552;BME280;49698;48.072;7.800;2023-04-07T00:17:32;99415.63;;;8.75;70.05
63552;BME280;49698;48.072;7.800;2023-04-07T00:20:00;99424.19;;;8.72;69.90
63552;BME280;49698;48.072;7.800;2023-04-07T00:22:28;99420.16;;;8.70;70.64
63552;BME280;49698;48.072;7.800;2023-04-07T00:24:56;99416.97;;;8.68;70.46
63552;BME280;49698;48.072;7.800;2023-04-07T00:27:24;99413.75;;;8.66;70.53
63552;BME280;49698;48.072;7.800;2023-04-07T00:29:52;99418.31;;;8.65;70.83
63552;BME280;49698;48.072;7.800;2023-04-07T00:32:21;99408.38;;;8.66;70.75
63552;BME280;49698;48.072;7.800;2023-04-07T00:34:50;99406.78;;;8.65;70.65
63552;BME280;49698;48.072;7.800;2023-04-07T00:37:18;99405.97;;;8.64;70.72
63552;BME280;49698;48.072;7.800;2023-04-07T00:39:46;99396.88;;;8.65;70.76
63552;BME280;49698;48.072;7.800;2023-04-07T00:42:14;99396.59;;;8.67;70.87
63552;BME280;49698;48.072;7.800;2023-04-07T00:44:42;99390.97;;;8.63;70.99
63552;BME280;49698;48.072;7.800;2023-04-07T00:47:10;99392.31;;;8.61;71.04
63552;BME280;49698;48.072;7.800;2023-04-07T00:49:39;99387.78;;;8.56;70.96
63552;BME280;49698;48.072;7.800;2023-04-07T00:52:09;99386.44;;;8.48;71.13
63552;BME280;49698;48.072;7.800;2023-04-07T00:54:38;99377.88;;;8.41;71.33
63552;BME280;49698;48.072;7.800;2023-04-07T00:57:08;99381.88;;;8.39;71.30
63552;BME280;49698;48.072;7.800;2023-04-07T00:59:36;99373.59;;;8.40;71.50
63552;BME280;49698;48.072;7.800;2023-04-07T01:02:10;99369.84;;;8.41;71.33
63552;BME280;49698;48.072;7.800;2023-04-07T01:04:43;99366.88;;;8.43;71.42
63552;BME280;49698;48.072;7.800;2023-04-07T01:07:17;99370.91;;;8.45;71.48
63552;BME280;49698;48.072;7.800;2023-04-07T01:10:02;99367.16;;;8.46;71.28
63552;BME280;49698;48.072;7.800;2023-04-07T01:12:43;99360.72;;;8.47;71.34
63552;BME280;49698;48.072;7.800;2023-04-07T01:15:17;99361.50;;;8.48;71.47
63552;BME280;49698;48.072;7.800;2023-04-07T01:17:56;99366.63;;;8.49;71.73
63552;BME280;49698;48.072;7.800;2023-04-07T01:20:29;99369.00;;;8.51;71.63
63552;BME280;49698;48.072;7.800;2023-04-07T01:23:05;99359.09;;;8.51;71.56
63552;BME280;49698;48.072;7.800;2023-04-07T01:25:53;99359.63;;;8.53;71.85
63552;BME280;49698;48.072;7.800;2023-04-07T01:32:31;99360.16;;;8.55;71.94
63552;BME280;49698;48.072;7.800;2023-04-07T01:35:02;99357.47;;;8.55;72.19
63552;BME280;49698;48.072;7.800;2023-04-07T01:37:32;99356.97;;;8.53;72.21
63552;BME280;49698;48.072;7.800;2023-04-07T01:40:01;99340.88;;;8.53;72.35
63552;BME280;49698;48.072;7.800;2023-04-07T01:42:30;99345.16;;;8.54;72.38
63552;BME280;49698;48.072;7.800;2023-04-07T01:44:59;99335.25;;;8.55;72.12
63552;BME280;49698;48.072;7.800;2023-04-07T01:47:30;99336.03;;;8.55;72.30
63552;BME280;49698;48.072;7.800;2023-04-07T01:49:59;99333.38;;;8.55;72.29
63552;BME280;49698;48.072;7.800;2023-04-07T01:52:30;99329.63;;;8.56;72.44
63552;BME280;49698;48.072;7.800;2023-04-07T01:54:58;99312.75;;;8.56;72.47
63552;BME280;49698;48.072;7.800;2023-04-07T01:57:26;99310.34;;;8.54;72.62
63552;BME280;49698;48.072;7.800;2023-04-07T02:00:00;99321.59;;;8.51;72.80
63552;BME280;49698;48.072;7.800;2023-04-07T02:02:43;99312.50;;;8.47;73.13
63552;BME280;49698;48.072;7.800;2023-04-07T02:05:14;99313.56;;;8.46;72.98
63552;BME280;49698;48.072;7.800;2023-04-07T02:07:48;99304.47;;;8.42;72.87
63552;BME280;49698;48.072;7.800;2023-04-07T02:10:21;99308.22;;;8.41;72.92
63552;BME280;49698;48.072;7.800;2023-04-07T02:12:51;99303.97;;;8.40;72.99
63552;BME280;49698;48.072;7.800;2023-04-07T02:15:21;99304.50;;;8.37;73.25
63552;BME280;49698;48.072;7.800;2023-04-07T02:17:53;99299.09;;;8.32;73.47
63552;BME280;49698;48.072;7.800;2023-04-07T02:20:23;99297.22;;;8.27;73.52
63552;BME280;49698;48.072;7.800;2023-04-07T02:22:51;99294.03;;;8.25;73.54
63552;BME280;49698;48.072;7.800;2023-04-07T02:25:23;99293.50;;;8.23;73.77
63552;BME280;49698;48.072;7.800;2023-04-07T02:27:53;99282.00;;;8.18;74.05
63552;BME280;49698;48.072;7.800;2023-04-07T02:30:22;99285.19;;;8.15;74.59
63552;BME280;49698;48.072;7.800;2023-04-07T02:32:52;99279.06;;;8.14;74.58
63552;BME280;49698;48.072;7.800;2023-04-07T02:35:21;99270.22;;;8.14;74.19
63552;BME280;49698;48.072;7.800;2023-04-07T02:37:49;99269.16;;;8.09;74.62
63552;BME280;49698;48.072;7.800;2023-04-07T02:40:17;99266.22;;;8.06;74.92
63552;BME280;49698;48.072;7.800;2023-04-07T02:42:45;99266.19;;;8.01;74.65
63552;BME280;49698;48.072;7.800;2023-04-07T02:45:13;99263.25;;;7.97;75.08
63552;BME280;49698;48.072;7.800;2023-04-07T02:47:41;99269.16;;;7.94;75.04
63552;BME280;49698;48.072;7.800;2023-04-07T02:50:11;99279.84;;;7.89;75.35
63552;BME280;49698;48.072;7.800;2023-04-07T02:52:39;99279.34;;;7.87;75.43
63552;BME280;49698;48.072;7.800;2023-04-07T02:55:11;99272.91;;;7.83;75.29
63552;BME280;49698;48.072;7.800;2023-04-07T02:57:39;99274.25;;;7.80;75.48
63552;BME280;49698;48.072;7.800;2023-04-07T03:00:15;99270.22;;;7.78;75.47
63552;BME280;49698;48.072;7.800;2023-04-07T03:02:55;99271.56;;;7.75;75.63
63552;BME280;49698;48.072;7.800;2023-04-07T03:05:25;99268.63;;;7.77;75.96
63552;BME280;49698;48.072;7.800;2023-04-07T03:07:53;99265.13;;;7.76;75.70
63552;BME280;49698;48.072;7.800;2023-04-07T03:10:21;99267.00;;;7.76;75.68
63552;BME280;49698;48.072;7.800;2023-04-07T03:12:50;99261.13;;;7.74;75.99
63552;BME280;49698;48.072;7.800;2023-04-07T03:15:19;99261.66;;;7.76;75.66
63552;BME280;49698;48.072;7.800;2023-04-07T03:17:48;99261.38;;;7.77;75.59
63552;BME280;49698;48.072;7.800;2023-04-07T03:20:17;99258.47;;;7.79;76.08
63552;BME280;49698;48.072;7.800;2023-04-07T03:22:46;99258.97;;;7.81;75.79
63552;BME280;49698;48.072;7.800;2023-04-07T03:25:20;99263.81;;;7.84;75.68
63552;BME280;49698;48.072;7.800;2023-04-07T03:27:50;99268.88;;;7.85;75.88
63552;BME280;49698;48.072;7.800;2023-04-07T03:30:19;99265.66;;;7.89;75.68
63552;BME280;49698;48.072;7.800;2023-04-07T03:32:47;99262.75;;;7.90;75.99
63552;BME280;49698;48.072;7.800;2023-04-07T03:35:15;99259.00;;;7.91;75.61
63552;BME280;49698;48.072;7.800;2023-04-07T03:37:43;99252.03;;;7.90;75.78
63552;BME280;49698;48.072;7.800;2023-04-07T03:40:17;99254.97;;;7.89;76.00
63552;BME280;49698;48.072;7.800;2023-04-07T03:42:46;99242.94;;;7.81;75.75
63552;BME280;49698;48.072;7.800;2023-04-07T03:45:15;99246.69;;;7.80;76.14
63552;BME280;49698;48.072;7.800;2023-04-07T03:47:47;99235.69;;;7.81;76.24
63552;BME280;49698;48.072;7.800;2023-04-07T03:50:16;99237.84;;;7.84;76.11
63552;BME280;49698;48.072;7.800;2023-04-07T03:53:02;99240.78;;;7.88;76.07
63552;BME280;49698;48.072;7.800;2023-04-07T03:55:32;99238.38;;;7.92;75.92
63552;BME280;49698;48.072;7.800;2023-04-07T03:58:08;99234.38;;;7.94;75.86
63552;BME280;49698;48.072;7.800;2023-04-07T04:00:37;99234.38;;;7.94;76.10
63552;BME280;49698;48.072;7.800;2023-04-07T04:03:10;99233.56;;;7.94;76.03
63552;BME280;49698;48.072;7.800;2023-04-07T04:05:54;99228.47;;;7.92;75.65
63552;BME280;49698;48.072;7.800;2023-04-07T04:08:28;99225.53;;;7.94;75.81
63552;BME280;49698;48.072;7.800;2023-04-07T04:10:57;99222.03;;;7.93;76.20
63552;BME280;49698;48.072;7.800;2023-04-07T04:13:32;99223.13;;;7.92;76.00
63552;BME280;49698;48.072;7.800;2023-04-07T04:16:03;99225.28;;;7.90;75.91
63552;BME280;49698;48.072;7.800;2023-04-07T04:18:32;99226.88;;;7.91;75.96
63552;BME280;49698;48.072;7.800;2023-04-07T04:21:00;99222.03;;;7.93;76.05
63552;BME280;49698;48.072;7.800;2023-04-07T04:23:29;99219.38;;;7.93;76.24
63552;BME280;49698;48.072;7.800;2023-04-07T04:26:02;99214.03;;;7.88;76.41
63552;BME280;49698;48.072;7.800;2023-04-07T04:28:31;99215.09;;;7.87;76.73
63552;BME280;49698;48.072;7.800;2023-04-07T04:31:03;99208.69;;;7.83;76.50
63552;BME280;49698;48.072;7.800;2023-04-07T04:33:37;99213.50;;;7.81;76.58
63552;BME280;49698;48.072;7.800;2023-04-07T04:36:06;99211.34;;;7.78;76.90
63552;BME280;49698;48.072;7.800;2023-04-07T04:38:34;99198.53;;;7.75;77.07
63552;BME280;49698;48.072;7.800;2023-04-07T04:41:09;99209.47;;;7.73;77.46
63552;BME280;49698;48.072;7.800;2023-04-07T04:43:37;99214.31;;;7.71;77.14
63552;BME280;49698;48.072;7.800;2023-04-07T04:46:06;99207.63;;;7.69;77.45
63552;BME280;49698;48.072;7.800;2023-04-07T04:48:39;99216.44;;;7.64;77.46
63552;BME280;49698;48.072;7.800;2023-04-07T04:51:07;99209.75;;;7.62;77.32
63552;BME280;49698;48.072;7.800;2023-04-07T04:53:37;99211.34;;;7.63;77.34
63552;BME280;49698;48.072;7.800;2023-04-07T04:56:06;99209.75;;;7.62;77.20
63552;BME280;49698;48.072;7.800;2023-04-07T04:58:40;99214.03;;;7.63;77.27
63552;BME280;49698;48.072;7.800;2023-04-07T05:01:17;99211.34;;;7.63;77.16
63552;BME280;49698;48.072;7.800;2023-04-07T05:04:02;99213.78;;;7.64;77.17
63552;BME280;49698;48.072;7.800;2023-04-07T05:06:30;99213.50;;;7.66;76.98
63552;BME280;49698;48.072;7.800;2023-04-07T05:09:04;99219.13;;;7.69;76.96
63552;BME280;49698;48.072;7.800;2023-04-07T05:11:40;99222.06;;;7.73;76.82
63552;BME280;49698;48.072;7.800;2023-04-07T05:14:09;99222.34;;;7.76;76.67
63552;BME280;49698;48.072;7.800;2023-04-07T05:16:42;99222.31;;;7.81;76.70
63552;BME280;49698;48.072;7.800;2023-04-07T05:19:16;99221.53;;;7.86;76.36
63552;BME280;49698;48.072;7.800;2023-04-07T05:21:44;99225.28;;;7.90;76.56
63552;BME280;49698;48.072;7.800;2023-04-07T05:24:13;99221.53;;;7.91;76.64
63552;BME280;49698;48.072;7.800;2023-04-07T05:26:42;99227.41;;;7.88;76.56
63552;BME280;49698;48.072;7.800;2023-04-07T05:29:12;99225.28;;;7.90;76.34
63552;BME280;49698;48.072;7.800;2023-04-07T05:31:40;99224.72;;;7.93;76.36
63552;BME280;49698;48.072;7.800;2023-04-07T05:34:11;99220.44;;;7.97;76.37
63552;BME280;49698;48.072;7.800;2023-04-07T05:36:45;99229.81;;;7.95;76.32
63552;BME280;49698;48.072;7.800;2023-04-07T05:39:14;99229.03;;;7.94;76.33
63552;BME280;49698;48.072;7.800;2023-04-07T05:41:43;99225.25;;;7.95;76.35
63552;BME280;49698;48.072;7.800;2023-04-07T05:44:14;99227.13;;;7.95;76.34
63552;BME280;49698;48.072;7.800;2023-04-07T05:46:43;99233.56;;;7.99;76.21
63552;BME280;49698;48.072;7.800;2023-04-07T05:49:13;99226.84;;;8.01;76.14
63552;BME280;49698;48.072;7.800;2023-04-07T05:51:47;99231.66;;;8.04;76.23
63552;BME280;49698;48.072;7.800;2023-04-07T05:54:15;99224.69;;;8.08;76.42
63552;BME280;49698;48.072;7.800;2023-04-07T05:56:44;99230.06;;;8.14;76.08
63552;BME280;49698;48.072;7.800;2023-04-07T05:59:13;99225.78;;;8.18;76.26
63552;BME280;49698;48.072;7.800;2023-04-07T06:01:41;99226.53;;;8.23;75.65
63552;BME280;49698;48.072;7.800;2023-04-07T06:04:10;99225.72;;;8.28;75.91
63552;BME280;49698;48.072;7.800;2023-04-07T06:06:38;99229.22;;;8.33;75.49
63552;BME280;49698;48.072;7.800;2023-04-07T06:09:06;99231.09;;;8.38;75.48
63552;BME280;49698;48.072;7.800;2023-04-07T06:11:34;99234.03;;;8.42;75.08
63552;BME280;49698;48.072;7.800;2023-04-07T06:14:02;99237.50;;;8.47;75.05
63552;BME280;49698;48.072;7.800;2023-04-07T06:16:31;99238.84;;;8.50;75.22
63552;BME280;49698;48.072;7.800;2023-04-07T06:18:59;99239.91;;;8.49;75.25
63552;BME280;49698;48.072;7.800;2023-04-07T06:21:28;99243.09;;;8.51;75.11
63552;BME280;49698;48.072;7.800;2023-04-07T06:23:57;99242.28;;;8.55;75.08
63552;BME280;49698;48.072;7.800;2023-04-07T06:26:26;99247.66;;;8.61;74.84
63552;BME280;49698;48.072;7.800;2023-04-07T06:28:54;99249.22;;;8.67;74.45
63552;BME280;49698;48.072;7.800;2023-04-07T06:31:22;99251.91;;;8.72;74.48
63552;BME280;49698;48.072;7.800;2023-04-07T06:33:52;99258.31;;;8.76;74.24
63552;BME280;49698;48.072;7.800;2023-04-07T06:36:21;99265.22;;;8.82;74.36
63552;BME280;49698;48.072;7.800;2023-04-07T06:38:52;99264.16;;;8.88;73.97
63552;BME280;49698;48.072;7.800;2023-04-07T06:41:20;99262.53;;;8.92;73.68
63552;BME280;49698;48.072;7.800;2023-04-07T06:43:48;99267.88;;;8.92;73.44
63552;BME280;49698;48.072;7.800;2023-04-07T06:46:17;99263.59;;;8.86;73.63
63552;BME280;49698;48.072;7.800;2023-04-07T06:48:45;99256.91;;;8.89;73.57
63552;BME280;49698;48.072;7.800;2023-04-07T06:51:14;99263.28;;;8.98;73.13
63552;BME280;49698;48.072;7.800;2023-04-07T06:53:42;99261.41;;;9.03;73.06
63552;BME280;49698;48.072;7.800;2023-04-07T06:56:11;99258.97;;;9.07;72.80
63552;BME280;49698;48.072;7.800;2023-04-07T06:58:39;99260.28;;;9.15;72.25
63552;BME280;49698;48.072;7.800;2023-04-07T07:01:07;99270.91;;;9.25;72.02
63552;BME280;49698;48.072;7.800;2023-04-07T07:03:35;99275.19;;;9.31;72.00
63552;BME280;49698;48.072;7.800;2023-04-07T07:06:03;99271.41;;;9.37;71.66
63552;BME280;49698;48.072;7.800;2023-04-07T07:08:33;99265.72;;;9.49;71.42
63552;BME280;49698;48.072;7.800;2023-04-07T07:11:01;99268.59;;;9.58;70.98
63552;BME280;49698;48.072;7.800;2023-04-07T07:13:28;99278.19;;;9.64;70.87
63552;BME280;49698;48.072;7.800;2023-04-07T07:15:56;99276.56;;;9.68;70.94
63552;BME280;49698;48.072;7.800;2023-04-07T07:18:24;99280.25;;;9.77;70.81
63552;BME280;49698;48.072;7.800;2023-04-07T07:20:52;99273.97;;;9.92;69.94
63552;BME280;49698;48.072;7.800;2023-04-07T07:23:21;99284.53;;;10.12;69.35
63552;BME280;49698;48.072;7.800;2023-04-07T07:25:50;99281.69;;;10.33;68.89
63552;BME280;49698;48.072;7.800;2023-04-07T07:28:18;99282.31;;;10.48;68.48
63552;BME280;49698;48.072;7.800;2023-04-07T07:30:47;99285.41;;;10.61;68.03
63552;BME280;49698;48.072;7.800;2023-04-07T07:33:15;99283.72;;;10.70;67.57
63552;BME280;49698;48.072;7.800;2023-04-07T07:35:43;99291.38;;;10.82;68.02
63552;BME280;49698;48.072;7.800;2023-04-07T07:38:12;99297.06;;;10.99;67.28
63552;BME280;49698;48.072;7.800;2023-04-07T07:40:40;99298.50;;;11.15;66.61
63552;BME280;49698;48.072;7.800;2023-04-07T07:43:09;99295.31;;;11.32;66.08
63552;BME280;49698;48.072;7.800;2023-04-07T07:45:38;99298.38;;;11.44;65.83
63552;BME280;49698;48.072;7.800;2023-04-07T07:48:06;99288.53;;;11.54;65.36
63552;BME280;49698;48.072;7.800;2023-04-07T07:50:34;99291.63;;;11.66;64.79
63552;BME280;49698;48.072;7.800;2023-04-07T07:53:02;99296.81;;;11.76;64.54
63552;BME280;49698;48.072;7.800;2023-04-07T07:55:30;99293.44;;;11.89;63.72
63552;BME280;49698;48.072;7.800;2023-04-07T07:57:57;99295.38;;;12.03;63.04
63552;BME280;49698;48.072;7.800;2023-04-07T08:00:27;99300.06;;;12.11;62.82
63552;BME280;49698;48.072;7.800;2023-04-07T08:02:55;99306.41;;;12.20;62.30
63552;BME280;49698;48.072;7.800;2023-04-07T08:05:23;99307.41;;;12.24;62.17
63552;BME280;49698;48.072;7.800;2023-04-07T08:07:52;99313.19;;;12.31;61.83
63552;BME280;49698;48.072;7.800;2023-04-07T08:10:21;99310.91;;;12.38;61.43
63552;BME280;49698;48.072;7.800;2023-04-07T08:12:50;99320.00;;;12.42;60.88
63552;BME280;49698;48.072;7.800;2023-04-07T08:15:18;99317.72;;;12.49;60.73
63552;BME280;49698;48.072;7.800;2023-04-07T08:17:48;99333.22;;;12.58;60.17
63552;BME280;49698;48.072;7.800;2023-04-07T08:20:16;99329.34;;;12.64;59.56
63552;BME280;49698;48.072;7.800;2023-04-07T08:22:44;99331.72;;;12.65;59.56
63552;BME280;49698;48.072;7.800;2023-04-07T08:25:12;99334.72;;;12.64;59.23
63552;BME280;49698;48.072;7.800;2023-04-07T08:27:40;99341.31;;;12.58;59.58
63552;BME280;49698;48.072;7.800;2023-04-07T08:30:09;99341.41;;;12.53;59.45
63552;BME280;49698;48.072;7.800;2023-04-07T08:32:40;99335.09;;;12.43;59.84
63552;BME280;49698;48.072;7.800;2023-04-07T08:35:10;99346.63;;;12.30;60.35
63552;BME280;49698;48.072;7.800;2023-04-07T08:37:39;99352.00;;;12.16;60.53
63552;BME280;49698;48.072;7.800;2023-04-07T08:40:08;99356.31;;;11.98;60.97
63552;BME280;49698;48.072;7.800;2023-04-07T08:42:40;99355.88;;;11.91;61.66
63552;BME280;49698;48.072;7.800;2023-04-07T08:45:09;99359.78;;;11.80;62.04
63552;BME280;49698;48.072;7.800;2023-04-07T08:47:39;99360.09;;;11.79;62.30
63552;BME280;49698;48.072;7.800;2023-04-07T08:50:11;99370.06;;;11.78;62.29
63552;BME280;49698;48.072;7.800;2023-04-07T08:52:44;99371.94;;;11.78;62.65
63552;BME280;49698;48.072;7.800;2023-04-07T08:55:12;99381.94;;;11.77;63.22
63552;BME280;49698;48.072;7.800;2023-04-07T08:57:41;99379.63;;;11.65;63.42
63552;BME280;49698;48.072;7.800;2023-04-07T09:00:11;99377.81;;;11.61;63.78
63552;BME280;49698;48.072;7.800;2023-04-07T09:02:41;99390.25;;;11.57;64.64
63552;BME280;49698;48.072;7.800;2023-04-07T09:05:12;99387.94;;;11.50;64.84
63552;BME280;49698;48.072;7.800;2023-04-07T09:07:41;99392.28;;;11.46;65.20
63552;BME280;49698;48.072;7.800;2023-04-07T09:10:10;99390.97;;;11.43;65.52
63552;BME280;49698;48.072;7.800;2023-04-07T09:12:38;99389.16;;;11.39;65.77
63552;BME280;49698;48.072;7.800;2023-04-07T09:15:07;99393.22;;;11.36;66.21
63552;BME280;49698;48.072;7.800;2023-04-07T09:17:35;99390.59;;;11.31;66.66
63552;BME280;49698;48.072;7.800;2023-04-07T09:20:04;99392.75;;;11.29;66.85
63552;BME280;49698;48.072;7.800;2023-04-07T09:22:39;99392.69;;;11.34;67.34
63552;BME280;49698;48.072;7.800;2023-04-07T09:25:13;99398.59;;;11.36;67.45
63552;BME280;49698;48.072;7.800;2023-04-07T09:27:56;99395.09;;;11.36;67.42
63552;BME280;49698;48.072;7.800;2023-04-07T09:30:24;99401.00;;;11.38;67.75
63552;BME280;49698;48.072;7.800;2023-04-07T09:32:53;99394.34;;;11.30;67.81
63552;BME280;49698;48.072;7.800;2023-04-07T09:35:21;99401.47;;;11.21;68.61
63552;BME280;49698;48.072;7.800;2023-04-07T09:38:05;99407.19;;;11.14;68.83
63552;BME280;49698;48.072;7.800;2023-04-07T09:40:34;99408.81;;;11.15;68.83
63552;BME280;49698;48.072;7.800;2023-04-07T09:43:04;99408.44;;;11.22;68.65
63552;BME280;49698;48.072;7.800;2023-04-07T09:45:32;99418.06;;;11.28;68.71
63552;BME280;49698;48.072;7.800;2023-04-07T09:48:04;99409.13;;;11.33;68.33
63552;BME280;49698;48.072;7.800;2023-04-07T09:50:34;99414.63;;;11.46;67.96
63552;BME280;49698;48.072;7.800;2023-04-07T09:53:04;99414.72;;;11.60;67.28
63552;BME280;49698;48.072;7.800;2023-04-07T09:55:32;99410.44;;;11.78;66.54
63552;BME280;49698;48.072;7.800;2023-04-07T09:58:03;99409.88;;;12.00;65.72
63552;BME280;49698;48.072;7.800;2023-04-07T10:00:32;99413.81;;;12.08;65.53
63552;BME280;49698;48.072;7.800;2023-04-07T10:03:00;99412.66;;;12.14;64.92
63552;BME280;49698;48.072;7.800;2023-04-07T10:05:30;99421.63;;;12.28;64.83
63552;BME280;49698;48.072;7.800;2023-04-07T10:07:59;99408.97;;;12.42;64.22
63552;BME280;49698;48.072;7.800;2023-04-07T10:10:29;99407.75;;;12.67;63.50
63552;BME280;49698;48.072;7.800;2023-04-07T10:12:58;99413.88;;;12.87;63.11
63552;BME280;49698;48.072;7.800;2023-04-07T10:15:26;99416.31;;;13.02;62.82
63552;BME280;49698;48.072;7.800;2023-04-07T10:17:54;99412.31;;;13.13;62.56
63552;BME280;49698;48.072;7.800;2023-04-07T10:20:23;99416.31;;;13.16;62.46
63552;BME280;49698;48.072;7.800;2023-04-07T10:22:54;99414.19;;;12.99;62.95
63552;BME280;49698;48.072;7.800;2023-04-07T10:25:31;99417.97;;;12.84;63.29
63552;BME280;49698;48.072;7.800;2023-04-07T10:28:04;99430.81;;;12.73;63.79
63552;BME280;49698;48.072;7.800;2023-04-07T10:30:33;99422.81;;;12.55;64.13
63552;BME280;49698;48.072;7.800;2023-04-07T10:33:02;99432.88;;;12.30;64.63
63552;BME280;49698;48.072;7.800;2023-04-07T10:36:04;99433.78;;;12.07;65.33
63552;BME280;49698;48.072;7.800;2023-04-07T10:38:32;99441.03;;;11.87;65.43
63552;BME280;49698;48.072;7.800;2023-04-07T10:41:30;99440.56;;;11.80;65.73
63552;BME280;49698;48.072;7.800;2023-04-07T10:43:58;99436.34;;;11.74;66.09
63552;BME280;49698;48.072;7.800;2023-04-07T10:49:38;99442.28;;;11.52;66.50
63552;BME280;49698;48.072;7.800;2023-04-07T10:52:23;99441.53;;;11.46;66.50
63552;BME280;49698;48.072;7.800;2023-04-07T10:55:31;99447.50;;;11.43;66.45
63552;BME280;49698;48.072;7.800;2023-04-07T10:58:21;99448.69;;;11.32;67.12
63552;BME280;49698;48.072;7.800;2023-04-07T11:01:17;99452.13;;;11.14;67.75
63552;BME280;49698;48.072;7.800;2023-04-07T11:03:57;99448.84;;;11.17;67.57
63552;BME280;49698;48.072;7.800;2023-04-07T11:06:25;99452.28;;;11.22;67.31
63552;BME280;49698;48.072;7.800;2023-04-07T11:08:55;99457.34;;;11.29;67.28
63552;BME280;49698;48.072;7.800;2023-04-07T11:11:37;99455.81;;;11.23;67.06
63552;BME280;49698;48.072;7.800;2023-04-07T11:14:05;99459.63;;;11.17;67.52
63552;BME280;49698;48.072;7.800;2023-04-07T11:16:38;99453.69;;;11.20;67.59
63552;BME280;49698;48.072;7.800;2023-04-07T11:19:07;99451.97;;;11.29;66.99
63552;BME280;49698;48.072;7.800;2023-04-07T11:21:35;99462.09;;;11.37;67.13
63552;BME280;49698;48.072;7.800;2023-04-07T11:24:05;99457.09;;;11.49;66.82
63552;BME280;49698;48.072;7.800;2023-04-07T11:26:38;99461.00;;;11.62;66.42
63552;BME280;49698;48.072;7.800;2023-04-07T11:29:06;99459.03;;;11.68;66.32
63552;BME280;49698;48.072;7.800;2023-04-07T11:31:34;99457.91;;;11.74;66.26
63552;BME280;49698;48.072;7.800;2023-04-07T11:34:04;99462.03;;;11.90;65.52
63552;BME280;49698;48.072;7.800;2023-04-07T11:36:36;99461.28;;;12.04;65.51
63552;BME280;49698;48.072;7.800;2023-04-07T11:39:17;99464.66;;;12.33;64.59
63552;BME280;49698;48.072;7.800;2023-04-07T11:41:47;99456.19;;;12.59;64.08
63552;BME280;49698;48.072;7.800;2023-04-07T11:44:15;99453.81;;;12.71;63.36
63552;BME280;49698;48.072;7.800;2023-04-07T11:46:54;99458.69;;;12.69;62.99
63552;BME280;49698;48.072;7.800;2023-04-07T11:49:23;99461.56;;;12.59;63.17
63552;BME280;49698;48.072;7.800;2023-04-07T11:51:57;99465.56;;;12.42;63.75
63552;BME280;49698;48.072;7.800;2023-04-07T11:54:27;99469.47;;;12.17;63.98
63552;BME280;49698;48.072;7.800;2023-04-07T11:56:55;99464.38;;;11.97;64.80
63552;BME280;49698;48.072;7.800;2023-04-07T11:59:24;99471.19;;;11.89;65.10
63552;BME280;49698;48.072;7.800;2023-04-07T12:01:52;99465.34;;;11.82;65.34
63552;BME280;49698;48.072;7.800;2023-04-07T12:04:23;99476.44;;;11.75;65.42
63552;BME280;49698;48.072;7.800;2023-04-07T12:06:51;99479.56;;;11.64;65.63
63552;BME280;49698;48.072;7.800;2023-04-07T12:09:31;99470.78;;;11.53;65.47
63552;BME280;49698;48.072;7.800;2023-04-07T12:12:01;99474.00;;;11.55;65.74
63552;BME280;49698;48.072;7.800;2023-04-07T12:14:31;99475.75;;;11.65;65.57
63552;BME280;49698;48.072;7.800;2023-04-07T12:16:59;99478.88;;;11.77;65.31
63552;BME280;49698;48.072;7.800;2023-04-07T12:19:30;99473.28;;;11.92;64.84
63552;BME280;49698;48.072;7.800;2023-04-07T12:22:00;99474.84;;;11.98;64.30
63552;BME280;49698;48.072;7.800;2023-04-07T12:24:29;99471.56;;;12.02;64.30
63552;BME280;49698;48.072;7.800;2023-04-07T12:26:58;99476.09;;;12.06;64.08
63552;BME280;49698;48.072;7.800;2023-04-07T12:29:26;99468.22;;;12.10;63.94
63552;BME280;49698;48.072;7.800;2023-04-07T12:31:55;99473.16;;;12.03;63.76
63552;BME280;49698;48.072;7.800;2023-04-07T12:34:23;99474.38;;;11.91;64.31
63552;BME280;49698;48.072;7.800;2023-04-07T12:36:51;99477.72;;;11.83;64.44
63552;BME280;49698;48.072;7.800;2023-04-07T12:39:19;99479.91;;;11.81;64.54
63552;BME280;49698;48.072;7.800;2023-04-07T12:41:51;99478.34;;;11.75;64.49
63552;BME280;49698;48.072;7.800;2023-04-07T12:44:19;99478.41;;;11.70;64.51
63552;BME280;49698;48.072;7.800;2023-04-07T12:46:47;99478.97;;;11.67;64.86
63552;BME280;49698;48.072;7.800;2023-04-07T12:49:15;99479.78;;;11.67;64.71
63552;BME280;49698;48.072;7.800;2023-04-07T12:51:44;99479.47;;;11.69;64.47
63552;BME280;49698;48.072;7.800;2023-04-07T12:54:12;99478.53;;;11.60;64.85
63552;BME280;49698;48.072;7.800;2023-04-07T12:56:43;99480.75;;;11.52;64.72
63552;BME280;49698;48.072;7.800;2023-04-07T12:59:13;99480.34;;;11.40;65.29
63552;BME280;49698;48.072;7.800;2023-04-07T13:01:41;99474.25;;;11.35;65.71
63552;BME280;49698;48.072;7.800;2023-04-07T13:04:09;99474.50;;;11.33;65.69
63552;BME280;49698;48.072;7.800;2023-04-07T13:06:37;99472.34;;;11.35;65.70
63552;BME280;49698;48.072;7.800;2023-04-07T13:09:05;99468.00;;;11.39;65.43
63552;BME280;49698;48.072;7.800;2023-04-07T13:11:33;99468.00;;;11.39;65.60
63552;BME280;49698;48.072;7.800;2023-04-07T13:14:01;99475.72;;;11.46;65.23
63552;BME280;49698;48.072;7.800;2023-04-07T13:16:31;99479.22;;;11.46;65.45
63552;BME280;49698;48.072;7.800;2023-04-07T13:18:59;99470.41;;;11.41;65.30
63552;BME280;49698;48.072;7.800;2023-04-07T13:21:29;99472.28;;;11.40;65.30
63552;BME280;49698;48.072;7.800;2023-04-07T13:24:06;99469.50;;;11.50;65.26
63552;BME280;49698;48.072;7.800;2023-04-07T13:26:34;99473.72;;;11.57;65.28
63552;BME280;49698;48.072;7.800;2023-04-07T13:29:02;99474.16;;;11.64;65.20